Terminal Aerodrome Forecast
Issued by NWS

Home | Current Version | Previous Version | Text Only | Print | Product List | Glossary On
Versions: 1 2 3 4 5 6 7 8 9 10 11 12 13
000
FTUS45 KABQ 212335
TAFSAF
TAF
KSAF 212335Z 2200/2224 16011G20KT P6SM VCSH BKN050
      TEMPO 2200/2204 3SM -SHSN BR OVC025
     FM220600 16009KT P6SM VCSH OVC035
     FM221500 20010KT P6SM SCT025 BKN035
     FM221800 24018G28KT P6SM SCT050=

USA.gov is the U.S. government's official web portal to all federal, state and local government web resources and services.